Time;durP1;ratioP1;P1;durP2;ratioP2;P2;SDS_P1;SDS_P2;PMS_P1;PMS_P2;Temp;Humidity;BMP_temperature;BMP_pressure;BME280_temperature;BME280_humidity;BME280_pressure;Samples;Min_cycle;Max_cycle;Signal;HPM_P1;HPM_P2
2022/03/31 00:00:56;;;;;;;7.90;5.90;;;5.10;1.00;;;;;;5096421;28;20461;-72
2022/03/31 00:03:23;;;;;;;8.23;6.07;;;5.10;1.00;;;;;;5096505;28;20492;-72
2022/03/31 00:05:50;;;;;;;6.63;5.90;;;5.10;1.00;;;;;;5096422;28;20765;-72
2022/03/31 00:08:20;;;;;;;9.53;5.70;;;5.00;1.00;;;;;;5096252;28;20761;-72
2022/03/31 00:10:48;;;;;;;5.33;4.83;;;5.10;1.00;;;;;;5097043;28;20574;-74
2022/03/31 00:13:17;;;;;;;5.93;5.33;;;5.00;1.00;;;;;;5096359;28;20457;-72
2022/03/31 00:15:44;;;;;;;6.80;5.87;;;5.00;1.00;;;;;;5095849;28;20457;-72
2022/03/31 00:18:12;;;;;;;9.40;6.03;;;5.00;1.00;;;;;;5096229;28;20776;-72
2022/03/31 00:20:39;;;;;;;7.90;5.90;;;5.00;1.00;;;;;;5096110;28;20468;-72
2022/03/31 00:23:06;;;;;;;7.80;6.23;;;4.90;1.00;;;;;;5095778;28;20512;-72
2022/03/31 00:25:34;;;;;;;8.60;5.30;;;4.90;1.00;;;;;;5095938;28;20485;-72
2022/03/31 00:28:03;;;;;;;7.27;6.53;;;4.90;1.00;;;;;;5095696;28;20532;-72
2022/03/31 00:30:31;;;;;;;11.47;5.50;;;4.90;1.00;;;;;;5095580;28;20557;-72
2022/03/31 00:32:58;;;;;;;12.13;5.90;;;4.80;1.00;;;;;;5095364;28;20539;-72
2022/03/31 00:35:28;;;;;;;8.83;6.20;;;4.80;1.00;;;;;;5095728;28;20496;-72
2022/03/31 00:37:55;;;;;;;5.87;5.27;;;4.70;1.00;;;;;;5096314;28;20560;-72
2022/03/31 00:40:22;;;;;;;6.00;4.90;;;4.70;1.00;;;;;;5095931;28;20824;-73
2022/03/31 00:42:53;;;;;;;9.53;5.77;;;4.60;1.00;;;;;;5096868;28;20477;-72
2022/03/31 00:45:23;;;;;;;6.67;5.80;;;4.60;1.00;;;;;;5096698;28;20438;-73
2022/03/31 00:47:52;;;;;;;8.00;5.83;;;4.50;1.00;;;;;;5095955;28;20460;-72
2022/03/31 00:50:19;;;;;;;7.10;4.63;;;4.50;1.00;;;;;;5095995;28;20453;-72
2022/03/31 00:52:46;;;;;;;10.50;5.50;;;4.40;1.00;;;;;;5095478;28;20553;-72
2022/03/31 00:55:17;;;;;;;6.67;4.93;;;4.30;1.00;;;;;;5094973;28;20504;-72
2022/03/31 00:57:45;;;;;;;8.07;5.20;;;4.30;1.00;;;;;;5094940;28;20453;-72
2022/03/31 01:00:15;;;;;;;7.50;5.10;;;4.30;1.00;;;;;;5095412;28;20859;-71
2022/03/31 01:02:44;;;;;;;5.87;4.90;;;4.20;1.00;;;;;;5094945;28;20511;-72
2022/03/31 01:05:14;;;;;;;9.43;4.57;;;4.20;1.00;;;;;;5094699;28;20932;-72
2022/03/31 01:07:41;;;;;;;6.80;5.20;;;4.20;1.00;;;;;;5095408;28;20449;-72
2022/03/31 01:10:10;;;;;;;6.43;5.33;;;4.20;1.00;;;;;;5095166;28;20473;-72
2022/03/31 01:12:37;;;;;;;9.70;6.47;;;4.20;1.00;;;;;;5095622;28;20462;-72
2022/03/31 01:15:09;;;;;;;9.37;5.97;;;4.10;1.00;;;;;;5094699;28;20464;-72
2022/03/31 01:17:39;;;;;;;6.57;4.87;;;4.10;1.00;;;;;;5095269;28;20442;-73
2022/03/31 01:20:07;;;;;;;8.03;4.53;;;4.10;1.00;;;;;;5095479;28;20750;-73
2022/03/31 01:22:34;;;;;;;6.90;4.93;;;4.00;1.00;;;;;;5095625;28;20468;-72
2022/03/31 01:25:05;;;;;;;7.97;5.73;;;4.00;1.00;;;;;;5095638;28;20457;-72
2022/03/31 01:27:33;;;;;;;7.13;4.80;;;4.00;1.00;;;;;;5102083;28;20442;-72
2022/03/31 01:30:00;;;;;;;6.40;5.20;;;3.90;1.00;;;;;;5104389;28;20445;-73
2022/03/31 01:32:27;;;;;;;6.53;4.90;;;3.90;1.00;;;;;;5097982;28;20453;-72
2022/03/31 01:34:54;;;;;;;6.43;4.67;;;3.80;1.00;;;;;;5095922;28;20461;-72
2022/03/31 01:37:21;;;;;;;6.80;4.70;;;3.80;1.00;;;;;;5096339;28;20457;-72
2022/03/31 01:39:47;;;;;;;6.43;5.10;;;3.80;1.00;;;;;;5097477;28;20480;-72
2022/03/31 01:42:15;;;;;;;6.27;4.67;;;3.70;1.00;;;;;;5097277;28;20457;-72
2022/03/31 01:44:42;;;;;;;6.07;5.23;;;3.70;1.00;;;;;;5096021;28;20485;-72
2022/03/31 01:47:09;;;;;;;8.57;5.53;;;3.70;1.00;;;;;;5094793;28;20449;-73
2022/03/31 01:49:37;;;;;;;5.77;4.97;;;3.60;1.00;;;;;;5094756;28;20457;-73
2022/03/31 01:52:06;;;;;;;5.43;4.93;;;3.60;1.00;;;;;;5094895;28;20488;-73
2022/03/31 01:54:33;;;;;;;6.10;5.37;;;3.60;1.00;;;;;;5094509;28;20804;-71
2022/03/31 01:56:59;;;;;;;6.70;5.27;;;3.60;1.00;;;;;;5094561;28;20535;-72
2022/03/31 01:59:34;;;;;;;8.40;5.10;;;3.50;1.00;;;;;;5094856;28;20453;-72
2022/03/31 02:02:01;;;;;;;6.87;4.43;;;3.50;1.00;;;;;;5095334;28;20774;-72
2022/03/31 02:04:28;;;;;;;6.83;5.20;;;3.50;1.00;;;;;;5094540;28;20924;-72
2022/03/31 02:06:55;;;;;;;9.50;4.77;;;3.50;1.00;;;;;;5094664;28;20449;-72
2022/03/31 02:09:21;;;;;;;6.37;4.80;;;3.50;1.00;;;;;;5094657;28;20453;-72
2022/03/31 02:11:48;;;;;;;5.20;4.43;;;3.40;1.00;;;;;;5094396;28;20918;-71
2022/03/31 02:14:15;;;;;;;5.83;4.80;;;3.30;1.00;;;;;;5095611;28;20449;-72
2022/03/31 02:16:43;;;;;;;7.17;4.77;;;3.30;1.00;;;;;;5098741;28;20457;-73
2022/03/31 02:19:10;;;;;;;6.87;4.80;;;3.30;1.00;;;;;;5098531;28;20468;-72
2022/03/31 02:21:37;;;;;;;4.93;4.43;;;3.30;1.00;;;;;;5098582;28;20453;-72
2022/03/31 02:24:04;;;;;;;5.97;4.40;;;3.30;1.00;;;;;;5098460;28;20477;-73
2022/03/31 02:26:31;;;;;;;4.80;3.87;;;3.30;1.00;;;;;;5098611;28;20464;-72
2022/03/31 02:28:58;;;;;;;7.20;4.80;;;3.30;1.00;;;;;;5098377;28;20487;-72
2022/03/31 02:31:24;;;;;;;6.27;3.83;;;3.20;1.00;;;;;;5097932;28;20457;-72
2022/03/31 02:33:52;;;;;;;7.20;4.53;;;3.20;1.00;;;;;;5098187;28;20460;-72
2022/03/31 02:36:19;;;;;;;5.73;4.67;;;3.20;1.00;;;;;;5098049;28;20479;-72
2022/03/31 02:38:46;;;;;;;7.70;4.60;;;3.20;1.00;;;;;;5098312;28;20467;-72
2022/03/31 02:41:12;;;;;;;7.40;4.80;;;3.10;1.00;;;;;;5098232;28;20452;-72
2022/03/31 02:43:39;;;;;;;6.17;5.37;;;3.10;1.00;;;;;;5098029;28;20488;-71
2022/03/31 02:46:06;;;;;;;5.70;4.13;;;3.10;1.00;;;;;;5097876;28;20461;-72
2022/03/31 02:48:33;;;;;;;4.40;4.00;;;3.10;1.00;;;;;;5097798;28;20534;-72
2022/03/31 02:51:01;;;;;;;5.80;4.03;;;3.00;1.00;;;;;;5098242;28;20843;-72
2022/03/31 02:56:12;;;;;;;9.43;4.33;;;2.90;1.00;;;;;;5098012;28;20478;-72
2022/03/31 02:58:39;;;;;;;6.33;4.63;;;2.90;1.00;;;;;;5097575;28;20551;-72
2022/03/31 03:01:06;;;;;;;7.37;4.10;;;2.80;1.00;;;;;;5097484;28;20492;-72
2022/03/31 03:03:33;;;;;;;13.93;4.30;;;2.80;1.00;;;;;;5097700;28;20477;-72
2022/03/31 03:06:01;;;;;;;5.47;4.50;;;2.80;1.00;;;;;;5097594;28;20499;-72
2022/03/31 03:08:28;;;;;;;5.93;4.23;;;2.70;1.00;;;;;;5097165;28;20969;-73
2022/03/31 03:10:55;;;;;;;5.50;4.73;;;2.70;1.00;;;;;;5097427;28;20989;-73
2022/03/31 03:13:22;;;;;;;6.47;4.80;;;2.70;1.00;;;;;;5098251;28;20458;-73
2022/03/31 03:15:48;;;;;;;8.63;5.00;;;2.70;1.00;;;;;;5097901;28;20929;-73
2022/03/31 03:18:18;;;;;;;8.30;4.70;;;2.70;1.00;;;;;;5097672;28;20836;-72
2022/03/31 03:20:48;;;;;;;7.37;4.87;;;2.70;1.00;;;;;;5097505;28;20523;-71
2022/03/31 03:23:16;;;;;;;6.87;3.93;;;2.70;1.00;;;;;;5097157;28;20457;-72
2022/03/31 03:25:43;;;;;;;5.97;4.50;;;2.60;1.00;;;;;;5097147;28;20784;-72
2022/03/31 03:28:12;;;;;;;6.63;5.07;;;2.60;1.00;;;;;;5096702;28;20907;-72
2022/03/31 03:30:39;;;;;;;7.03;4.53;;;2.60;1.00;;;;;;5097322;28;20453;-73
2022/03/31 03:33:06;;;;;;;5.97;4.50;;;2.60;1.00;;;;;;5097164;28;20775;-71
2022/03/31 03:35:32;;;;;;;5.10;4.60;;;2.50;1.00;;;;;;5096979;28;20450;-72
2022/03/31 03:37:59;;;;;;;8.03;5.13;;;2.50;1.00;;;;;;5097595;28;20784;-72
2022/03/31 03:40:29;;;;;;;5.97;4.57;;;2.40;1.00;;;;;;5098230;28;20464;-72
2022/03/31 03:42:56;;;;;;;7.33;4.30;;;2.40;1.00;;;;;;5097292;28;20469;-73
2022/03/31 03:45:23;;;;;;;6.00;4.33;;;2.40;1.00;;;;;;5096660;28;20978;-73
2022/03/31 03:47:50;;;;;;;13.17;6.07;;;2.30;1.00;;;;;;5096482;28;20457;-73
2022/03/31 03:50:17;;;;;;;5.80;4.00;;;2.30;1.00;;;;;;5096643;28;20470;-73
2022/03/31 03:52:45;;;;;;;9.57;4.90;;;2.30;1.00;;;;;;5096746;28;20475;-72
2022/03/31 03:55:12;;;;;;;7.87;5.30;;;2.30;1.00;;;;;;5096103;28;20473;-72
2022/03/31 03:57:40;;;;;;;6.20;4.57;;;2.20;1.00;;;;;;5096230;28;20468;-72
2022/03/31 04:00:09;;;;;;;4.83;4.30;;;2.20;1.00;;;;;;5096363;28;20500;-72
2022/03/31 04:02:36;;;;;;;4.90;4.27;;;2.20;1.00;;;;;;5096489;28;20457;-72
2022/03/31 04:05:04;;;;;;;6.83;3.60;;;2.20;1.00;;;;;;5095912;28;20978;-73
2022/03/31 04:07:30;;;;;;;6.13;4.07;;;2.20;1.00;;;;;;5096484;28;20518;-72
2022/03/31 04:09:57;;;;;;;7.47;4.50;;;2.20;1.00;;;;;;5096173;28;20931;-72
2022/03/31 04:12:24;;;;;;;5.33;3.97;;;2.10;1.00;;;;;;5096254;28;20457;-71
2022/03/31 04:14:52;;;;;;;6.83;4.70;;;2.10;1.00;;;;;;5095963;28;20456;-71
2022/03/31 04:17:19;;;;;;;7.77;3.97;;;2.10;1.00;;;;;;5096262;28;20550;-71
2022/03/31 04:19:45;;;;;;;5.33;3.43;;;2.10;1.00;;;;;;5095793;28;20457;-71
2022/03/31 04:22:12;;;;;;;4.50;3.77;;;2.10;1.00;;;;;;5096242;28;20453;-71
2022/03/31 04:24:39;;;;;;;5.30;4.20;;;2.10;1.00;;;;;;5095690;28;20473;-71
2022/03/31 04:27:06;;;;;;;6.00;4.47;;;2.00;1.00;;;;;;5095828;28;20461;-71
2022/03/31 04:29:32;;;;;;;4.23;3.67;;;2.00;1.00;;;;;;5096121;28;20795;-72
2022/03/31 04:32:01;;;;;;;7.70;3.93;;;2.00;1.00;;;;;;5095834;28;20457;-72
2022/03/31 04:34:27;;;;;;;6.97;3.67;;;2.00;1.00;;;;;;5095778;28;20638;-72
2022/03/31 04:36:54;;;;;;;4.77;4.10;;;1.90;1.00;;;;;;5095122;28;20469;-72
2022/03/31 04:39:21;;;;;;;5.70;3.97;;;1.90;1.00;;;;;;5095566;28;20773;-71
2022/03/31 04:41:47;;;;;;;7.10;3.90;;;1.90;1.00;;;;;;5095651;28;20457;-72
2022/03/31 04:44:14;;;;;;;5.30;3.80;;;1.90;1.00;;;;;;5096435;28;20555;-72
2022/03/31 04:46:41;;;;;;;4.27;3.50;;;1.80;1.00;;;;;;5100007;28;20456;-73
2022/03/31 04:49:09;;;;;;;5.03;3.63;;;1.80;1.00;;;;;;5096186;28;20461;-72
2022/03/31 04:51:36;;;;;;;5.40;4.10;;;1.80;1.00;;;;;;5095394;28;20850;-73
2022/03/31 04:54:02;;;;;;;9.30;4.00;;;1.80;1.00;;;;;;5095236;28;20493;-73
2022/03/31 04:56:29;;;;;;;5.53;4.43;;;1.80;1.00;;;;;;5095395;28;20765;-73
2022/03/31 04:58:56;;;;;;;8.57;4.10;;;1.70;1.00;;;;;;5095371;28;20457;-72
2022/03/31 05:01:23;;;;;;;10.93;7.83;;;1.80;1.00;;;;;;5095427;28;20460;-72
2022/03/31 05:03:51;;;;;;;8.03;5.40;;;1.80;1.00;;;;;;5095310;28;20457;-73
2022/03/31 05:06:19;;;;;;;7.90;4.13;;;1.80;1.00;;;;;;5095597;28;20807;-73
2022/03/31 05:08:45;;;;;;;4.30;3.60;;;1.80;1.00;;;;;;5095282;28;20916;-72
2022/03/31 05:11:12;;;;;;;8.33;3.27;;;1.80;1.00;;;;;;5095493;28;20908;-72
2022/03/31 05:13:39;;;;;;;4.90;3.60;;;1.80;1.00;;;;;;5096045;28;20528;-72
2022/03/31 05:16:06;;;;;;;7.13;4.03;;;1.70;1.00;;;;;;5096645;28;20923;-73
2022/03/31 05:18:33;;;;;;;10.90;3.90;;;1.70;1.00;;;;;;5097347;28;20453;-72
2022/03/31 05:21:00;;;;;;;3.60;3.30;;;1.70;1.00;;;;;;5097206;28;20822;-72
2022/03/31 05:23:28;;;;;;;5.47;4.00;;;1.70;1.00;;;;;;5097649;28;20465;-73
2022/03/31 05:25:55;;;;;;;6.70;3.73;;;1.70;1.00;;;;;;5097208;28;20764;-73
2022/03/31 05:28:21;;;;;;;4.60;3.23;;;1.70;1.00;;;;;;5095438;28;20480;-73
2022/03/31 05:30:50;;;;;;;6.40;3.83;;;1.70;1.00;;;;;;5095870;28;20551;-72
2022/03/31 05:33:17;;;;;;;5.90;3.97;;;1.70;1.00;;;;;;5095192;28;20468;-72
2022/03/31 05:35:44;;;;;;;15.77;4.00;;;1.70;1.00;;;;;;5095339;28;20556;-72
2022/03/31 05:38:11;;;;;;;4.07;3.13;;;1.70;1.00;;;;;;5096249;28;20465;-74
2022/03/31 05:40:39;;;;;;;4.70;4.03;;;1.70;1.00;;;;;;5096839;28;20472;-72
2022/03/31 05:43:05;;;;;;;7.10;3.30;;;1.80;1.00;;;;;;5096745;28;20460;-72
2022/03/31 05:45:32;;;;;;;5.27;3.80;;;1.80;1.00;;;;;;5096638;28;20481;-72
2022/03/31 05:47:59;;;;;;;7.43;3.53;;;1.80;1.00;;;;;;5097544;28;20518;-72
2022/03/31 05:50:27;;;;;;;6.73;3.33;;;1.80;1.00;;;;;;5098838;28;20449;-71
2022/03/31 05:52:54;;;;;;;9.67;4.03;;;1.90;1.00;;;;;;5099657;28;20461;-71
2022/03/31 05:55:21;;;;;;;11.27;4.27;;;1.90;1.00;;;;;;5099496;28;20449;-72
2022/03/31 05:57:49;;;;;;;8.70;3.90;;;1.90;1.00;;;;;;5098980;28;20467;-71
2022/03/31 06:00:18;;;;;;;4.70;3.60;;;1.90;1.00;;;;;;5099142;28;20775;-71
2022/03/31 06:02:46;;;;;;;5.70;3.93;;;1.90;1.00;;;;;;5098543;28;20910;-71
2022/03/31 06:05:13;;;;;;;7.67;3.30;;;1.90;1.00;;;;;;5098981;28;20534;-71
2022/03/31 06:07:40;;;;;;;9.23;4.03;;;1.90;1.00;;;;;;5098609;28;20810;-71
2022/03/31 06:10:08;;;;;;;4.03;3.10;;;1.90;1.00;;;;;;5098640;28;20481;-71
2022/03/31 06:12:35;;;;;;;15.27;10.10;;;1.90;1.00;;;;;;5099179;28;20457;-71
2022/03/31 06:15:04;;;;;;;6.60;4.03;;;1.90;1.00;;;;;;5099136;28;20532;-71
2022/03/31 06:17:30;;;;;;;4.50;3.90;;;1.90;1.00;;;;;;5099771;28;20461;-73
2022/03/31 06:19:57;;;;;;;4.57;3.10;;;2.00;1.00;;;;;;5101069;28;20453;-72
2022/03/31 06:22:24;;;;;;;4.90;3.63;;;2.00;1.00;;;;;;5101105;28;20468;-72
2022/03/31 06:24:51;;;;;;;4.10;3.37;;;2.00;1.00;;;;;;5100834;28;20558;-71
2022/03/31 06:27:18;;;;;;;8.23;4.03;;;2.00;1.00;;;;;;5100703;28;20477;-71
2022/03/31 06:29:45;;;;;;;4.40;3.63;;;2.00;1.00;;;;;;5099945;28;20911;-71
2022/03/31 06:32:13;;;;;;;5.83;3.80;;;2.10;1.00;;;;;;5099586;28;20461;-70
2022/03/31 06:34:40;;;;;;;5.77;4.47;;;2.10;1.00;;;;;;5099180;28;20460;-72
2022/03/31 06:37:07;;;;;;;7.63;4.00;;;2.10;1.00;;;;;;5098723;28;20453;-72
2022/03/31 06:39:34;;;;;;;8.10;3.83;;;2.10;1.00;;;;;;5098284;28;20758;-71
2022/03/31 06:42:00;;;;;;;4.97;3.23;;;2.10;1.00;;;;;;5098169;28;20469;-70
2022/03/31 06:44:27;;;;;;;13.20;3.70;;;2.10;1.00;;;;;;5098089;28;20472;-72
2022/03/31 06:46:54;;;;;;;6.20;4.47;;;2.20;1.00;;;;;;5098240;28;20468;-71
2022/03/31 06:49:25;;;;;;;4.70;4.00;;;2.20;1.00;;;;;;5098676;28;20468;-71
2022/03/31 06:51:52;;;;;;;5.43;3.77;;;2.30;1.00;;;;;;5098609;28;20777;-70
2022/03/31 06:54:19;;;;;;;4.30;3.60;;;2.30;1.00;;;;;;5098127;28;20504;-71
2022/03/31 06:56:47;;;;;;;5.10;4.40;;;2.40;1.00;;;;;;5098325;28;20496;-73
2022/03/31 06:59:13;;;;;;;5.27;4.27;;;2.40;1.00;;;;;;5098331;28;20465;-71
2022/03/31 07:01:40;;;;;;;4.70;4.00;;;2.50;1.00;;;;;;5097211;28;20453;-71
2022/03/31 07:04:07;;;;;;;7.53;4.43;;;2.50;1.00;;;;;;5097573;28;20924;-72
2022/03/31 07:06:35;;;;;;;4.77;3.83;;;2.50;1.00;;;;;;5097862;28;20992;-72
2022/03/31 07:09:02;;;;;;;4.03;3.73;;;2.60;1.00;;;;;;5097482;28;20457;-71
2022/03/31 07:11:29;;;;;;;6.57;4.00;;;2.60;1.00;;;;;;5097908;28;20465;-72
2022/03/31 07:13:55;;;;;;;4.90;3.87;;;2.70;1.00;;;;;;5097802;28;20465;-72
2022/03/31 07:16:22;;;;;;;5.40;3.70;;;2.80;1.00;;;;;;5097401;28;20464;-71
2022/03/31 07:18:49;;;;;;;6.00;4.03;;;2.80;1.00;;;;;;5097299;28;20747;-72
2022/03/31 07:21:16;;;;;;;11.53;4.10;;;2.90;1.00;;;;;;5097633;28;20461;-72
2022/03/31 07:23:47;;;;;;;6.27;4.20;;;2.90;1.00;;;;;;5097259;28;20522;-72
2022/03/31 07:26:15;;;;;;;6.37;4.20;;;2.90;1.00;;;;;;5097541;28;20807;-72
2022/03/31 07:28:42;;;;;;;9.20;4.53;;;2.90;1.00;;;;;;5096929;28;20946;-72
2022/03/31 07:31:09;;;;;;;6.50;3.87;;;3.00;1.00;;;;;;5097311;28;20471;-71
2022/03/31 07:33:36;;;;;;;6.90;3.73;;;3.10;1.00;;;;;;5097149;28;20587;-72
2022/03/31 07:36:06;;;;;;;4.57;4.00;;;3.20;1.00;;;;;;5097243;28;20456;-71
2022/03/31 07:38:33;;;;;;;6.00;4.30;;;3.30;1.00;;;;;;5097285;28;20469;-72
2022/03/31 07:41:01;;;;;;;5.80;4.43;;;3.40;1.00;;;;;;5097252;28;20453;-72
2022/03/31 07:43:28;;;;;;;5.80;4.37;;;3.40;1.00;;;;;;5097330;28;20468;-72
2022/03/31 07:45:55;;;;;;;8.27;4.77;;;3.50;1.00;;;;;;5097496;28;20481;-71
2022/03/31 07:48:21;;;;;;;4.73;4.23;;;3.50;1.00;;;;;;5097313;28;20732;-71
2022/03/31 07:50:48;;;;;;;5.40;4.50;;;3.60;1.00;;;;;;5097767;28;20741;-72
2022/03/31 07:53:17;;;;;;;7.20;4.63;;;3.70;1.00;;;;;;5096764;28;20524;-71
2022/03/31 07:55:43;;;;;;;4.57;4.17;;;3.80;1.00;;;;;;5097183;28;20530;-71
2022/03/31 07:58:12;;;;;;;6.50;4.90;;;3.90;1.00;;;;;;5096757;28;20780;-73
2022/03/31 08:00:38;;;;;;;9.67;4.53;;;4.00;1.00;;;;;;5096622;28;20457;-72
2022/03/31 08:03:05;;;;;;;9.33;4.53;;;4.10;1.00;;;;;;5096320;28;20935;-72
2022/03/31 08:05:37;;;;;;;4.67;4.00;;;4.10;1.00;;;;;;5096438;28;20785;-72
2022/03/31 08:08:04;;;;;;;5.50;4.60;;;4.10;1.00;;;;;;5100636;28;20442;-71
2022/03/31 08:10:31;;;;;;;4.30;3.90;;;4.20;1.00;;;;;;5100125;28;20472;-71
2022/03/31 08:12:58;;;;;;;7.63;4.27;;;4.20;1.00;;;;;;5095268;28;20469;-72
2022/03/31 08:15:26;;;;;;;3.67;3.37;;;4.30;1.00;;;;;;5096402;28;20460;-72
2022/03/31 08:17:53;;;;;;;7.30;4.40;;;4.20;1.00;;;;;;5096266;28;20453;-72
2022/03/31 08:20:21;;;;;;;10.43;4.87;;;4.30;1.00;;;;;;5096167;28;20468;-72
2022/03/31 08:22:49;;;;;;;8.70;4.70;;;4.40;1.00;;;;;;5096225;28;20996;-72
2022/03/31 08:25:18;;;;;;;13.40;5.10;;;4.50;1.00;;;;;;5095720;28;21084;-70
2022/03/31 08:27:46;;;;;;;12.77;5.10;;;4.70;1.00;;;;;;5096146;28;20453;-72
2022/03/31 08:30:18;;;;;;;7.33;4.43;;;4.80;1.00;;;;;;5096292;28;20484;-72
2022/03/31 08:32:47;;;;;;;8.03;4.37;;;5.00;1.00;;;;;;5095996;28;20441;-72
2022/03/31 08:35:15;;;;;;;6.43;3.90;;;5.10;1.00;;;;;;5095997;28;20500;-71
2022/03/31 08:37:42;;;;;;;5.57;4.33;;;5.10;1.00;;;;;;5095937;28;20449;-72
2022/03/31 08:40:11;;;;;;;5.20;4.67;;;5.10;1.00;;;;;;5095393;28;20457;-72
2022/03/31 08:42:38;;;;;;;6.17;4.70;;;5.10;1.00;;;;;;5095743;28;20457;-71
2022/03/31 08:45:07;;;;;;;10.20;4.20;;;5.20;1.00;;;;;;5095038;28;20926;-71
2022/03/31 08:47:35;;;;;;;15.17;5.30;;;5.20;1.00;;;;;;5095495;28;20563;-71
2022/03/31 08:50:04;;;;;;;13.80;5.67;;;5.30;1.00;;;;;;5095162;28;20515;-72
2022/03/31 08:52:30;;;;;;;5.63;4.23;;;5.40;1.00;;;;;;5095467;28;20542;-71
2022/03/31 08:54:57;;;;;;;5.83;4.60;;;5.60;1.00;;;;;;5094793;28;20489;-72
2022/03/31 08:57:25;;;;;;;21.30;6.60;;;5.70;1.00;;;;;;5095239;28;20472;-72
2022/03/31 08:59:52;;;;;;;13.90;6.30;;;5.80;1.00;;;;;;5095618;28;20453;-70
2022/03/31 09:02:24;;;;;;;9.00;4.10;;;6.00;1.00;;;;;;5095480;28;20468;-71
2022/03/31 09:05:03;;;;;;;5.87;4.00;;;6.20;1.00;;;;;;5095197;28;20789;-71
2022/03/31 09:07:31;;;;;;;18.07;8.43;;;6.30;1.00;;;;;;5095129;28;20444;-72
2022/03/31 09:09:58;;;;;;;9.23;4.53;;;6.40;1.00;;;;;;5095507;28;20461;-72
2022/03/31 09:12:27;;;;;;;6.43;4.33;;;6.40;1.00;;;;;;5094658;28;20451;-72
2022/03/31 09:14:54;;;;;;;6.67;4.33;;;6.30;1.00;;;;;;5095402;28;20453;-72
2022/03/31 09:17:21;;;;;;;7.27;4.27;;;6.40;1.00;;;;;;5094569;28;20475;-72
2022/03/31 09:19:56;;;;;;;8.77;4.60;;;6.40;1.00;;;;;;5095106;28;20802;-72
2022/03/31 09:22:23;;;;;;;6.87;4.20;;;6.40;1.00;;;;;;5094684;28;20448;-71
2022/03/31 09:25:01;;;;;;;6.07;4.13;;;6.40;1.00;;;;;;5094978;28;20454;-72
2022/03/31 09:27:27;;;;;;;4.73;4.23;;;6.40;1.00;;;;;;5095115;28;20945;-72
2022/03/31 09:30:05;;;;;;;7.90;5.93;;;6.40;1.00;;;;;;5094849;28;20468;-72
2022/03/31 09:32:32;;;;;;;5.07;4.03;;;6.50;1.00;;;;;;5095217;28;20449;-72
2022/03/31 09:35:06;;;;;;;21.57;5.53;;;6.60;1.00;;;;;;5094961;28;20464;-72
2022/03/31 09:37:33;;;;;;;14.97;6.60;;;6.70;1.00;;;;;;5095561;28;20442;-71
2022/03/31 09:40:01;;;;;;;5.63;4.73;;;6.80;1.00;;;;;;5095616;28;20493;-71
2022/03/31 09:42:28;;;;;;;5.30;4.37;;;7.00;1.00;;;;;;5097472;28;20457;-72
2022/03/31 09:44:58;;;;;;;12.10;4.83;;;7.10;1.00;;;;;;5098541;28;20927;-71
2022/03/31 09:47:26;;;;;;;7.37;4.53;;;7.10;1.00;;;;;;5096959;28;20990;-72
2022/03/31 09:49:54;;;;;;;9.97;5.33;;;7.20;1.00;;;;;;5094921;28;20467;-72
2022/03/31 09:52:21;;;;;;;6.53;5.20;;;7.20;1.00;;;;;;5095020;28;20464;-71
2022/03/31 09:54:49;;;;;;;5.60;4.80;;;7.40;1.00;;;;;;5095013;28;20481;-72
2022/03/31 09:57:22;;;;;;;5.73;4.90;;;7.60;1.00;;;;;;5094807;28;20469;-74
2022/03/31 09:59:53;;;;;;;6.63;4.73;;;7.80;1.00;;;;;;5094325;28;20448;-73
2022/03/31 10:02:21;;;;;;;9.13;5.57;;;7.80;1.00;;;;;;5094439;28;20892;-73
2022/03/31 10:04:49;;;;;;;7.90;5.27;;;7.70;1.00;;;;;;5094530;28;20592;-72
2022/03/31 10:07:16;;;;;;;8.27;5.20;;;7.80;1.00;;;;;;5094890;28;20473;-73
2022/03/31 10:09:43;;;;;;;9.60;5.17;;;7.80;1.00;;;;;;5094930;28;20533;-73
2022/03/31 10:12:17;;;;;;;9.07;5.20;;;7.90;1.00;;;;;;5094619;28;20474;-73
2022/03/31 10:14:53;;;;;;;5.83;4.60;;;8.10;1.00;;;;;;5094504;28;20430;-73
2022/03/31 10:17:26;;;;;;;8.57;5.80;;;8.20;1.00;;;;;;5094261;28;20436;-73
2022/03/31 10:19:54;;;;;;;8.50;4.80;;;8.20;1.00;;;;;;5094821;28;20455;-72
2022/03/31 10:25:09;;;;;;;7.43;4.97;;;8.60;1.00;;;;;;5094525;28;20429;-73
2022/03/31 10:27:40;;;;;;;14.20;5.23;;;8.80;1.00;;;;;;5094705;28;20561;-72
2022/03/31 10:30:14;;;;;;;5.20;4.70;;;9.00;1.00;;;;;;5094804;28;20448;-72
2022/03/31 10:32:51;;;;;;;14.27;8.63;;;9.10;1.00;;;;;;5094067;28;20453;-75
2022/03/31 10:35:24;;;;;;;6.63;5.20;;;9.20;1.00;;;;;;5095179;28;20452;-72
2022/03/31 10:37:50;;;;;;;7.90;5.30;;;9.20;1.00;;;;;;5098352;28;20751;-72
2022/03/31 10:40:29;;;;;;;6.23;5.43;;;9.00;1.00;;;;;;5098810;28;20522;-73
2022/03/31 10:43:20;;;;;;;7.53;5.43;;;9.10;1.00;;;;;;5099589;28;20452;-71
2022/03/31 10:45:49;;;;;;;8.20;6.10;;;9.10;1.00;;;;;;5097854;28;20473;-71
2022/03/31 10:48:19;;;;;;;11.60;5.47;;;9.00;1.00;;;;;;5097615;28;20500;-72
2022/03/31 10:50:46;;;;;;;7.07;5.40;;;9.00;1.00;;;;;;5097780;28;20526;-72
2022/03/31 10:53:14;;;;;;;8.47;6.70;;;9.00;1.00;;;;;;5097238;28;20473;-72
2022/03/31 10:55:42;;;;;;;5.73;5.10;;;9.00;1.00;;;;;;5099765;28;20447;-74
2022/03/31 10:58:20;;;;;;;6.57;5.20;;;9.00;1.00;;;;;;5101102;28;20461;-73
2022/03/31 11:00:50;;;;;;;6.77;5.10;;;9.20;1.00;;;;;;5099425;28;20448;-72
2022/03/31 11:03:18;;;;;;;7.40;5.17;;;9.30;1.00;;;;;;5098332;28;20504;-73
2022/03/31 11:05:44;;;;;;;8.67;5.27;;;9.20;1.00;;;;;;5098369;28;20565;-72
2022/03/31 11:08:16;;;;;;;8.17;5.20;;;9.20;1.00;;;;;;5097934;28;20547;-72
2022/03/31 11:10:45;;;;;;;8.13;5.07;;;9.40;1.00;;;;;;5097835;28;20779;-73
2022/03/31 11:13:13;;;;;;;9.23;5.00;;;9.50;1.00;;;;;;5097379;28;20550;-72
2022/03/31 11:15:40;;;;;;;7.03;5.17;;;9.70;1.00;;;;;;5097417;28;20806;-72
2022/03/31 11:18:11;;;;;;;5.63;4.77;;;9.90;1.00;;;;;;5096855;28;20441;-73
2022/03/31 11:20:39;;;;;;;6.50;5.23;;;10.00;1.00;;;;;;5096660;28;20437;-72
2022/03/31 11:23:07;;;;;;;6.93;4.80;;;10.00;1.00;;;;;;5097046;28;20457;-72
2022/03/31 11:25:34;;;;;;;8.87;5.10;;;10.00;1.00;;;;;;5096873;28;20512;-72
2022/03/31 11:28:08;;;;;;;10.83;5.20;;;10.10;1.00;;;;;;5097116;28;20473;-74
2022/03/31 11:30:35;;;;;;;11.53;5.30;;;10.40;1.00;;;;;;5096353;28;20445;-72
2022/03/31 11:33:03;;;;;;;27.63;5.63;;;10.70;1.00;;;;;;5096467;28;20458;-72
2022/03/31 11:35:32;;;;;;;28.47;7.07;;;11.00;1.00;;;;;;5098162;28;20461;-73
2022/03/31 11:38:00;;;;;;;31.63;6.97;;;11.40;1.00;;;;;;5098910;28;20468;-72
2022/03/31 11:40:29;;;;;;;30.00;7.50;;;11.60;1.00;;;;;;5096839;28;20522;-72
2022/03/31 11:42:59;;;;;;;35.70;7.50;;;11.90;1.00;;;;;;5096356;28;20457;-72
2022/03/31 11:45:29;;;;;;;86.73;10.20;;;12.10;1.00;;;;;;5096243;28;20479;-71
2022/03/31 11:47:58;;;;;;;16.03;5.90;;;12.20;1.00;;;;;;5096532;28;20959;-72
2022/03/31 11:50:28;;;;;;;8.33;5.67;;;12.30;1.00;;;;;;5097053;28;20461;-72
2022/03/31 11:53:00;;;;;;;16.60;5.47;;;12.20;1.00;;;;;;5097140;28;20465;-73
2022/03/31 11:55:27;;;;;;;12.13;5.20;;;12.10;1.00;;;;;;5096655;28;20449;-73
2022/03/31 11:57:56;;;;;;;7.30;4.53;;;12.10;1.00;;;;;;5096071;28;20552;-72
2022/03/31 12:00:24;;;;;;;10.83;5.83;;;12.20;1.00;;;;;;5095952;28;20464;-71
2022/03/31 12:03:03;;;;;;;15.07;5.30;;;12.40;1.00;;;;;;5096212;28;20770;-72
2022/03/31 12:05:30;;;;;;;11.17;5.30;;;12.80;1.00;;;;;;5096347;28;20538;-73
2022/03/31 12:08:00;;;;;;;5.50;4.50;;;13.10;1.00;;;;;;5096059;28;20476;-73
2022/03/31 12:10:28;;;;;;;6.43;4.87;;;13.30;1.00;;;;;;5096648;28;20453;-73
2022/03/31 12:13:00;;;;;;;8.00;4.50;;;13.50;1.00;;;;;;5095529;28;20522;-72
2022/03/31 12:15:28;;;;;;;7.73;5.53;;;13.80;1.00;;;;;;5096235;28;20872;-73
2022/03/31 12:18:01;;;;;;;6.60;4.30;;;14.00;1.00;;;;;;5095149;28;20937;-73
2022/03/31 12:20:28;;;;;;;6.53;5.67;;;13.90;1.00;;;;;;5095631;28;20453;-72
2022/03/31 12:22:55;;;;;;;4.90;4.40;;;13.60;1.00;;;;;;5095677;28;20884;-72
2022/03/31 12:25:34;;;;;;;9.23;4.80;;;13.40;1.00;;;;;;5095976;28;20796;-72
2022/03/31 12:28:06;;;;;;;5.10;4.60;;;13.20;1.00;;;;;;5095806;28;20485;-72
2022/03/31 12:30:41;;;;;;;5.40;4.87;;;13.00;1.00;;;;;;5095450;28;20540;-72
2022/03/31 12:33:17;;;;;;;7.20;4.73;;;13.10;1.00;;;;;;5095248;28;20511;-73
2022/03/31 12:35:50;;;;;;;8.93;5.23;;;12.90;1.00;;;;;;5095327;28;20484;-72
2022/03/31 12:38:17;;;;;;;5.73;4.20;;;12.70;1.00;;;;;;5095462;28;20785;-71
2022/03/31 12:40:46;;;;;;;7.30;5.20;;;12.30;1.00;;;;;;5095585;28;20454;-72
2022/03/31 12:43:13;;;;;;;7.10;5.30;;;11.90;1.00;;;;;;5095273;28;21014;-71
2022/03/31 12:45:39;;;;;;;6.07;4.70;;;11.60;1.00;;;;;;5095526;28;20453;-71
2022/03/31 12:48:11;;;;;;;6.77;4.93;;;11.30;1.00;;;;;;5095273;28;20477;-71
2022/03/31 12:50:40;;;;;;;7.03;4.80;;;11.20;1.00;;;;;;5096101;28;21029;-73
2022/03/31 12:53:07;;;;;;;7.70;4.50;;;11.10;1.00;;;;;;5095394;28;20655;-71
2022/03/31 12:55:36;;;;;;;5.70;4.80;;;11.00;1.00;;;;;;5096414;28;20449;-71
2022/03/31 12:58:06;;;;;;;5.93;4.67;;;11.10;1.00;;;;;;5094936;28;20471;-72
2022/03/31 13:00:34;;;;;;;4.90;4.40;;;11.20;1.00;;;;;;5095275;28;20529;-72
2022/03/31 13:03:01;;;;;;;6.33;4.27;;;11.30;1.00;;;;;;5095296;28;20464;-72
2022/03/31 13:05:29;;;;;;;7.70;3.73;;;11.40;1.00;;;;;;5095489;28;20457;-73
2022/03/31 13:07:57;;;;;;;4.90;4.03;;;11.70;1.00;;;;;;5095159;28;20481;-73
2022/03/31 13:10:25;;;;;;;5.30;4.30;;;12.00;1.00;;;;;;5095511;28;20458;-73
2022/03/31 13:12:53;;;;;;;5.80;4.00;;;12.30;1.00;;;;;;5095249;28;20484;-71
2022/03/31 13:15:22;;;;;;;7.40;3.67;;;12.60;1.00;;;;;;5095084;28;20453;-72